Carlsborg, Washington
Current Conditions -  °F | °C
As of 12:53 AM on Wednesday 22 Oct 2014 (Local Time) from KCLM Reporting Station
Light Rain Light Rain  
Wind Chill: 53°   Ceiling: 6500
Heat Index: 53°   Visibility: 10mi
Dew Point: 51°   Wind: 0mph
Humidity: 93%   Direction: NA
Pressure: 29.53"   Gusts: NA
Location:  48.09°N, 123.17°W
Report Text: KCLM 220753Z AUTO 00000KT 10SM -RA BKN065 OVC080 12/11 A2953 RMK AO2 SLP998 P0000 T01170106 401720089 TSNO $
Loading
Personal Weather Stations






























Interactive Weather Map New forecast layout! Learn more

10-Day Weather Forecast

Advertisements
Track Severe Weather on mobile